In Rescue
 
Open Full Screen Window  High Contrast Mode
Wind Gusting 00 knots
14
May 27, 2024 2:01 PM EDT
Present Weather: Light Drizzle and Mist
Weather Information
Wind Direction
  220 °
Wind Speed
  14 kt (16 mph)
Wind Gust
  00 kt (0 mph)
Altimeter
29.51 in
Visibility
3 SM
Temperature
16° C
61° F
Dewpoint
15° C
59° F
Humidity
94%
Sky Condition
Overcast @ 2,300 ft
Broken @ 1,600 ft
Broken @ 800 ft
IFR

METAR KHYX 271801Z AUTO 22014KT 3SM -DZ BR BKN008 BKN016 OVC023 16/15 A2951 RMK AO2

FAA Disclaimer: The data displayed is for advisory purposes only and is not to be used for flight planning or operations.